sensor_id;sensor_type;location;lat;lon;timestamp;P1;durP1;ratioP1;P2;durP2;ratioP2
71792;SDS011;59639;51.170;6.456;2022-07-30T00:00:51;11.82;;;6.30;;
71792;SDS011;59639;51.170;6.456;2022-07-30T00:03:16;12.45;;;5.88;;
71792;SDS011;59639;51.170;6.456;2022-07-30T00:05:41;13.60;;;6.45;;
71792;SDS011;59639;51.170;6.456;2022-07-30T00:08:07;17.38;;;7.03;;
71792;SDS011;59639;51.170;6.456;2022-07-30T00:10:32;11.68;;;6.60;;
71792;SDS011;59639;51.170;6.456;2022-07-30T00:12:58;11.80;;;6.93;;
71792;SDS011;59639;51.170;6.456;2022-07-30T00:15:23;12.00;;;6.65;;
71792;SDS011;59639;51.170;6.456;2022-07-30T00:17:48;18.40;;;7.68;;
71792;SDS011;59639;51.170;6.456;2022-07-30T00:20:14;21.65;;;8.32;;
71792;SDS011;59639;51.170;6.456;2022-07-30T00:22:39;13.68;;;8.48;;
71792;SDS011;59639;51.170;6.456;2022-07-30T00:25:05;15.88;;;7.65;;
71792;SDS011;59639;51.170;6.456;2022-07-30T00:27:31;16.30;;;7.43;;
71792;SDS011;59639;51.170;6.456;2022-07-30T00:29:59;12.80;;;6.88;;
71792;SDS011;59639;51.170;6.456;2022-07-30T00:32:25;14.15;;;7.20;;
71792;SDS011;59639;51.170;6.456;2022-07-30T00:34:50;13.05;;;7.28;;
71792;SDS011;59639;51.170;6.456;2022-07-30T00:37:16;12.93;;;7.32;;
71792;SDS011;59639;51.170;6.456;2022-07-30T00:39:41;9.60;;;7.00;;
71792;SDS011;59639;51.170;6.456;2022-07-30T00:42:06;16.20;;;7.40;;
71792;SDS011;59639;51.170;6.456;2022-07-30T00:44:32;12.25;;;7.57;;
71792;SDS011;59639;51.170;6.456;2022-07-30T00:46:57;17.50;;;8.13;;
71792;SDS011;59639;51.170;6.456;2022-07-30T00:49:23;16.20;;;7.95;;
71792;SDS011;59639;51.170;6.456;2022-07-30T00:51:49;11.48;;;7.43;;
71792;SDS011;59639;51.170;6.456;2022-07-30T00:54:15;15.27;;;8.88;;
71792;SDS011;59639;51.170;6.456;2022-07-30T00:56:40;20.77;;;7.47;;
71792;SDS011;59639;51.170;6.456;2022-07-30T00:59:06;15.57;;;8.13;;
71792;SDS011;59639;51.170;6.456;2022-07-30T01:01:32;10.68;;;6.22;;
71792;SDS011;59639;51.170;6.456;2022-07-30T01:03:58;14.35;;;7.63;;
71792;SDS011;59639;51.170;6.456;2022-07-30T01:06:23;9.57;;;6.55;;
71792;SDS011;59639;51.170;6.456;2022-07-30T01:08:49;12.75;;;7.60;;
71792;SDS011;59639;51.170;6.456;2022-07-30T01:11:14;10.90;;;7.30;;
71792;SDS011;59639;51.170;6.456;2022-07-30T01:13:40;14.15;;;6.60;;
71792;SDS011;59639;51.170;6.456;2022-07-30T01:16:06;13.27;;;6.15;;
71792;SDS011;59639;51.170;6.456;2022-07-30T01:18:32;13.02;;;7.15;;
71792;SDS011;59639;51.170;6.456;2022-07-30T01:21:17;20.85;;;6.63;;
71792;SDS011;59639;51.170;6.456;2022-07-30T01:23:47;15.30;;;6.72;;
71792;SDS011;59639;51.170;6.456;2022-07-30T01:26:17;21.70;;;6.65;;
71792;SDS011;59639;51.170;6.456;2022-07-30T01:28:47;11.02;;;6.03;;
71792;SDS011;59639;51.170;6.456;2022-07-30T01:31:15;14.13;;;7.25;;
71792;SDS011;59639;51.170;6.456;2022-07-30T01:33:44;20.33;;;7.35;;
71792;SDS011;59639;51.170;6.456;2022-07-30T01:36:12;11.63;;;6.35;;
71792;SDS011;59639;51.170;6.456;2022-07-30T01:38:40;13.68;;;7.05;;
71792;SDS011;59639;51.170;6.456;2022-07-30T01:41:08;12.05;;;6.85;;
71792;SDS011;59639;51.170;6.456;2022-07-30T01:43:35;12.73;;;7.43;;
71792;SDS011;59639;51.170;6.456;2022-07-30T01:46:02;16.15;;;6.53;;
71792;SDS011;59639;51.170;6.456;2022-07-30T01:48:29;19.27;;;7.25;;
71792;SDS011;59639;51.170;6.456;2022-07-30T01:50:59;15.00;;;6.95;;
71792;SDS011;59639;51.170;6.456;2022-07-30T01:53:28;12.52;;;7.38;;
71792;SDS011;59639;51.170;6.456;2022-07-30T01:55:56;14.93;;;6.88;;
71792;SDS011;59639;51.170;6.456;2022-07-30T01:58:25;27.58;;;7.07;;
71792;SDS011;59639;51.170;6.456;2022-07-30T02:00:53;12.32;;;7.20;;
71792;SDS011;59639;51.170;6.456;2022-07-30T02:03:22;18.85;;;6.45;;
71792;SDS011;59639;51.170;6.456;2022-07-30T02:06:02;23.52;;;8.20;;
71792;SDS011;59639;51.170;6.456;2022-07-30T02:11:18;14.20;;;7.82;;
71792;SDS011;59639;51.170;6.456;2022-07-30T02:14:06;16.77;;;8.07;;
71792;SDS011;59639;51.170;6.456;2022-07-30T02:16:37;16.67;;;7.60;;
71792;SDS011;59639;51.170;6.456;2022-07-30T02:19:05;23.80;;;14.60;;
71792;SDS011;59639;51.170;6.456;2022-07-30T02:21:37;16.65;;;7.65;;
71792;SDS011;59639;51.170;6.456;2022-07-30T02:24:06;19.20;;;7.80;;
71792;SDS011;59639;51.170;6.456;2022-07-30T02:26:36;16.38;;;7.78;;
71792;SDS011;59639;51.170;6.456;2022-07-30T02:29:02;16.83;;;8.05;;
71792;SDS011;59639;51.170;6.456;2022-07-30T02:31:30;18.63;;;8.57;;
71792;SDS011;59639;51.170;6.456;2022-07-30T02:33:58;12.35;;;8.30;;
71792;SDS011;59639;51.170;6.456;2022-07-30T02:36:27;14.32;;;8.30;;
71792;SDS011;59639;51.170;6.456;2022-07-30T02:38:53;16.00;;;8.30;;
71792;SDS011;59639;51.170;6.456;2022-07-30T02:41:21;11.93;;;8.18;;
71792;SDS011;59639;51.170;6.456;2022-07-30T02:43:52;18.85;;;8.15;;
71792;SDS011;59639;51.170;6.456;2022-07-30T02:46:19;22.63;;;8.82;;
71792;SDS011;59639;51.170;6.456;2022-07-30T02:48:46;14.85;;;9.25;;
71792;SDS011;59639;51.170;6.456;2022-07-30T02:51:15;18.50;;;9.45;;
71792;SDS011;59639;51.170;6.456;2022-07-30T02:53:44;20.70;;;9.35;;
71792;SDS011;59639;51.170;6.456;2022-07-30T02:56:11;13.40;;;9.30;;
71792;SDS011;59639;51.170;6.456;2022-07-30T02:58:40;19.60;;;10.65;;
71792;SDS011;59639;51.170;6.456;2022-07-30T03:01:07;33.38;;;11.85;;
71792;SDS011;59639;51.170;6.456;2022-07-30T03:03:35;16.30;;;10.77;;
71792;SDS011;59639;51.170;6.456;2022-07-30T03:06:01;16.55;;;10.50;;
71792;SDS011;59639;51.170;6.456;2022-07-30T03:08:29;23.38;;;10.95;;
71792;SDS011;59639;51.170;6.456;2022-07-30T03:10:56;26.30;;;11.02;;
71792;SDS011;59639;51.170;6.456;2022-07-30T03:13:22;23.60;;;11.85;;
71792;SDS011;59639;51.170;6.456;2022-07-30T03:15:49;16.92;;;10.65;;
71792;SDS011;59639;51.170;6.456;2022-07-30T03:18:17;19.50;;;11.43;;
71792;SDS011;59639;51.170;6.456;2022-07-30T03:20:45;20.92;;;11.13;;
71792;SDS011;59639;51.170;6.456;2022-07-30T03:23:14;26.38;;;10.88;;
71792;SDS011;59639;51.170;6.456;2022-07-30T03:25:41;20.45;;;10.38;;
71792;SDS011;59639;51.170;6.456;2022-07-30T03:28:13;19.90;;;12.13;;
71792;SDS011;59639;51.170;6.456;2022-07-30T03:30:39;18.88;;;11.25;;
71792;SDS011;59639;51.170;6.456;2022-07-30T03:33:07;22.42;;;12.57;;
71792;SDS011;59639;51.170;6.456;2022-07-30T03:35:33;18.98;;;10.85;;
71792;SDS011;59639;51.170;6.456;2022-07-30T03:37:59;18.33;;;11.15;;
71792;SDS011;59639;51.170;6.456;2022-07-30T03:40:26;20.63;;;11.60;;
71792;SDS011;59639;51.170;6.456;2022-07-30T03:42:53;20.38;;;12.70;;
71792;SDS011;59639;51.170;6.456;2022-07-30T03:45:19;22.75;;;12.32;;
71792;SDS011;59639;51.170;6.456;2022-07-30T03:47:45;23.20;;;11.98;;
71792;SDS011;59639;51.170;6.456;2022-07-30T03:50:12;21.92;;;11.60;;
71792;SDS011;59639;51.170;6.456;2022-07-30T03:52:39;18.02;;;11.20;;
71792;SDS011;59639;51.170;6.456;2022-07-30T03:55:06;23.63;;;11.60;;
71792;SDS011;59639;51.170;6.456;2022-07-30T03:57:33;18.40;;;12.20;;
71792;SDS011;59639;51.170;6.456;2022-07-30T03:59:59;26.58;;;13.43;;
71792;SDS011;59639;51.170;6.456;2022-07-30T04:02:25;23.08;;;12.27;;
71792;SDS011;59639;51.170;6.456;2022-07-30T04:04:50;22.52;;;13.05;;
71792;SDS011;59639;51.170;6.456;2022-07-30T04:07:16;23.42;;;12.68;;
71792;SDS011;59639;51.170;6.456;2022-07-30T04:09:41;21.88;;;12.70;;
71792;SDS011;59639;51.170;6.456;2022-07-30T04:12:07;24.75;;;12.98;;
71792;SDS011;59639;51.170;6.456;2022-07-30T04:14:40;26.65;;;12.30;;
71792;SDS011;59639;51.170;6.456;2022-07-30T04:17:08;23.15;;;13.15;;
71792;SDS011;59639;51.170;6.456;2022-07-30T04:19:40;26.33;;;12.60;;
71792;SDS011;59639;51.170;6.456;2022-07-30T04:22:10;22.98;;;12.38;;
71792;SDS011;59639;51.170;6.456;2022-07-30T04:24:40;31.13;;;13.80;;
71792;SDS011;59639;51.170;6.456;2022-07-30T04:27:08;25.92;;;14.30;;
71792;SDS011;59639;51.170;6.456;2022-07-30T04:29:33;29.65;;;14.13;;
71792;SDS011;59639;51.170;6.456;2022-07-30T04:31:59;36.25;;;14.98;;
71792;SDS011;59639;51.170;6.456;2022-07-30T04:34:25;41.28;;;15.30;;
71792;SDS011;59639;51.170;6.456;2022-07-30T04:36:50;38.25;;;14.38;;
71792;SDS011;59639;51.170;6.456;2022-07-30T04:39:16;36.15;;;16.23;;
71792;SDS011;59639;51.170;6.456;2022-07-30T04:41:41;45.75;;;17.33;;
71792;SDS011;59639;51.170;6.456;2022-07-30T04:44:06;38.13;;;17.20;;
71792;SDS011;59639;51.170;6.456;2022-07-30T04:46:32;36.72;;;16.92;;
71792;SDS011;59639;51.170;6.456;2022-07-30T04:48:57;42.15;;;16.55;;
71792;SDS011;59639;51.170;6.456;2022-07-30T04:51:24;40.03;;;16.98;;
71792;SDS011;59639;51.170;6.456;2022-07-30T04:53:52;33.05;;;15.88;;
71792;SDS011;59639;51.170;6.456;2022-07-30T04:56:20;35.55;;;15.68;;
71792;SDS011;59639;51.170;6.456;2022-07-30T04:58:47;37.55;;;17.23;;
71792;SDS011;59639;51.170;6.456;2022-07-30T05:01:15;40.22;;;16.65;;
71792;SDS011;59639;51.170;6.456;2022-07-30T05:03:46;35.97;;;17.40;;
71792;SDS011;59639;51.170;6.456;2022-07-30T05:06:14;33.42;;;17.52;;
71792;SDS011;59639;51.170;6.456;2022-07-30T05:08:40;42.70;;;17.42;;
71792;SDS011;59639;51.170;6.456;2022-07-30T05:11:09;32.60;;;17.42;;
71792;SDS011;59639;51.170;6.456;2022-07-30T05:13:42;41.70;;;17.60;;
71792;SDS011;59639;51.170;6.456;2022-07-30T05:16:12;37.70;;;18.42;;
71792;SDS011;59639;51.170;6.456;2022-07-30T05:18:38;33.53;;;17.17;;
71792;SDS011;59639;51.170;6.456;2022-07-30T05:21:03;37.38;;;17.23;;
71792;SDS011;59639;51.170;6.456;2022-07-30T05:23:29;36.72;;;16.65;;
71792;SDS011;59639;51.170;6.456;2022-07-30T05:25:55;32.50;;;17.30;;
71792;SDS011;59639;51.170;6.456;2022-07-30T05:28:20;29.75;;;17.27;;
71792;SDS011;59639;51.170;6.456;2022-07-30T05:30:46;34.13;;;16.50;;
71792;SDS011;59639;51.170;6.456;2022-07-30T05:33:12;31.48;;;15.40;;
71792;SDS011;59639;51.170;6.456;2022-07-30T05:35:37;30.95;;;17.08;;
71792;SDS011;59639;51.170;6.456;2022-07-30T05:38:03;38.95;;;17.08;;
71792;SDS011;59639;51.170;6.456;2022-07-30T05:40:28;30.90;;;16.30;;
71792;SDS011;59639;51.170;6.456;2022-07-30T05:42:53;34.22;;;18.23;;
71792;SDS011;59639;51.170;6.456;2022-07-30T05:45:19;33.42;;;16.02;;
71792;SDS011;59639;51.170;6.456;2022-07-30T05:47:44;37.72;;;17.00;;
71792;SDS011;59639;51.170;6.456;2022-07-30T05:50:10;49.00;;;19.20;;
71792;SDS011;59639;51.170;6.456;2022-07-30T05:52:36;31.48;;;15.52;;
71792;SDS011;59639;51.170;6.456;2022-07-30T05:55:02;36.67;;;15.70;;
71792;SDS011;59639;51.170;6.456;2022-07-30T05:57:28;35.92;;;15.88;;
71792;SDS011;59639;51.170;6.456;2022-07-30T05:59:53;30.17;;;15.20;;
71792;SDS011;59639;51.170;6.456;2022-07-30T06:02:19;31.35;;;15.10;;
71792;SDS011;59639;51.170;6.456;2022-07-30T06:04:44;29.55;;;16.13;;
71792;SDS011;59639;51.170;6.456;2022-07-30T06:07:09;35.10;;;15.48;;
71792;SDS011;59639;51.170;6.456;2022-07-30T06:09:35;27.17;;;12.82;;
71792;SDS011;59639;51.170;6.456;2022-07-30T06:12:00;28.80;;;14.98;;
71792;SDS011;59639;51.170;6.456;2022-07-30T06:14:25;42.70;;;14.80;;
71792;SDS011;59639;51.170;6.456;2022-07-30T06:16:51;33.42;;;14.18;;
71792;SDS011;59639;51.170;6.456;2022-07-30T06:19:16;23.85;;;12.75;;
71792;SDS011;59639;51.170;6.456;2022-07-30T06:21:41;24.70;;;12.73;;
71792;SDS011;59639;51.170;6.456;2022-07-30T06:24:07;25.60;;;14.23;;
71792;SDS011;59639;51.170;6.456;2022-07-30T06:26:32;24.35;;;13.88;;
71792;SDS011;59639;51.170;6.456;2022-07-30T06:28:58;35.33;;;15.63;;
71792;SDS011;59639;51.170;6.456;2022-07-30T06:31:23;26.55;;;12.95;;
71792;SDS011;59639;51.170;6.456;2022-07-30T06:33:49;24.23;;;13.48;;
71792;SDS011;59639;51.170;6.456;2022-07-30T06:36:14;23.33;;;13.90;;
71792;SDS011;59639;51.170;6.456;2022-07-30T06:38:40;33.97;;;14.00;;
71792;SDS011;59639;51.170;6.456;2022-07-30T06:41:05;27.90;;;13.55;;
71792;SDS011;59639;51.170;6.456;2022-07-30T06:43:31;23.67;;;14.10;;
71792;SDS011;59639;51.170;6.456;2022-07-30T06:45:56;31.55;;;12.18;;
71792;SDS011;59639;51.170;6.456;2022-07-30T06:48:21;25.02;;;13.15;;
71792;SDS011;59639;51.170;6.456;2022-07-30T06:50:47;25.90;;;14.68;;
71792;SDS011;59639;51.170;6.456;2022-07-30T06:53:12;39.03;;;14.13;;
71792;SDS011;59639;51.170;6.456;2022-07-30T06:55:37;30.42;;;13.43;;
71792;SDS011;59639;51.170;6.456;2022-07-30T06:58:03;37.63;;;14.48;;
71792;SDS011;59639;51.170;6.456;2022-07-30T07:00:28;31.13;;;14.13;;
71792;SDS011;59639;51.170;6.456;2022-07-30T07:02:54;23.33;;;12.70;;
71792;SDS011;59639;51.170;6.456;2022-07-30T07:05:19;29.35;;;14.55;;
71792;SDS011;59639;51.170;6.456;2022-07-30T07:07:46;23.42;;;12.93;;
71792;SDS011;59639;51.170;6.456;2022-07-30T07:10:12;25.55;;;12.65;;
71792;SDS011;59639;51.170;6.456;2022-07-30T07:12:37;25.60;;;12.93;;
71792;SDS011;59639;51.170;6.456;2022-07-30T07:15:03;23.60;;;13.68;;
71792;SDS011;59639;51.170;6.456;2022-07-30T07:17:28;32.38;;;14.05;;
71792;SDS011;59639;51.170;6.456;2022-07-30T07:19:54;31.10;;;13.98;;
71792;SDS011;59639;51.170;6.456;2022-07-30T07:22:19;32.70;;;13.85;;
71792;SDS011;59639;51.170;6.456;2022-07-30T07:24:45;29.85;;;13.40;;
71792;SDS011;59639;51.170;6.456;2022-07-30T07:27:10;25.70;;;12.35;;
71792;SDS011;59639;51.170;6.456;2022-07-30T07:29:35;21.95;;;11.90;;
71792;SDS011;59639;51.170;6.456;2022-07-30T07:32:01;25.70;;;11.77;;
71792;SDS011;59639;51.170;6.456;2022-07-30T07:34:26;21.20;;;11.00;;
71792;SDS011;59639;51.170;6.456;2022-07-30T07:36:52;25.70;;;9.57;;
71792;SDS011;59639;51.170;6.456;2022-07-30T07:39:17;22.05;;;8.93;;
71792;SDS011;59639;51.170;6.456;2022-07-30T07:41:42;16.92;;;9.10;;
71792;SDS011;59639;51.170;6.456;2022-07-30T07:44:08;20.77;;;8.27;;
71792;SDS011;59639;51.170;6.456;2022-07-30T07:46:33;19.40;;;8.05;;
71792;SDS011;59639;51.170;6.456;2022-07-30T07:48:58;14.80;;;7.80;;
71792;SDS011;59639;51.170;6.456;2022-07-30T07:51:24;19.88;;;8.73;;
71792;SDS011;59639;51.170;6.456;2022-07-30T07:53:50;15.00;;;8.40;;
71792;SDS011;59639;51.170;6.456;2022-07-30T07:56:15;14.15;;;6.95;;
71792;SDS011;59639;51.170;6.456;2022-07-30T07:58:40;15.60;;;6.70;;
71792;SDS011;59639;51.170;6.456;2022-07-30T08:01:06;15.23;;;6.28;;
71792;SDS011;59639;51.170;6.456;2022-07-30T08:03:31;16.90;;;6.78;;
71792;SDS011;59639;51.170;6.456;2022-07-30T08:05:57;13.15;;;5.93;;
71792;SDS011;59639;51.170;6.456;2022-07-30T08:08:22;13.73;;;5.70;;
71792;SDS011;59639;51.170;6.456;2022-07-30T08:10:48;10.32;;;5.65;;
71792;SDS011;59639;51.170;6.456;2022-07-30T08:13:13;8.60;;;5.32;;
71792;SDS011;59639;51.170;6.456;2022-07-30T08:15:39;11.68;;;5.28;;
71792;SDS011;59639;51.170;6.456;2022-07-30T08:18:05;9.07;;;4.50;;
71792;SDS011;59639;51.170;6.456;2022-07-30T08:20:31;8.45;;;4.55;;
71792;SDS011;59639;51.170;6.456;2022-07-30T08:22:59;11.18;;;4.68;;
71792;SDS011;59639;51.170;6.456;2022-07-30T08:25:26;11.45;;;4.03;;
71792;SDS011;59639;51.170;6.456;2022-07-30T08:27:51;14.88;;;5.70;;
71792;SDS011;59639;51.170;6.456;2022-07-30T08:30:17;6.65;;;3.92;;
71792;SDS011;59639;51.170;6.456;2022-07-30T08:32:45;34.17;;;14.80;;
71792;SDS011;59639;51.170;6.456;2022-07-30T08:35:11;21.08;;;7.60;;
71792;SDS011;59639;51.170;6.456;2022-07-30T08:37:36;13.70;;;5.35;;
71792;SDS011;59639;51.170;6.456;2022-07-30T08:40:05;11.50;;;6.32;;
71792;SDS011;59639;51.170;6.456;2022-07-30T08:42:31;12.02;;;5.22;;
71792;SDS011;59639;51.170;6.456;2022-07-30T08:44:58;12.43;;;4.63;;
71792;SDS011;59639;51.170;6.456;2022-07-30T08:47:25;9.95;;;4.32;;
71792;SDS011;59639;51.170;6.456;2022-07-30T08:49:55;9.48;;;5.07;;
71792;SDS011;59639;51.170;6.456;2022-07-30T08:52:26;9.05;;;4.00;;
71792;SDS011;59639;51.170;6.456;2022-07-30T08:54:52;7.93;;;4.50;;
71792;SDS011;59639;51.170;6.456;2022-07-30T08:57:18;13.25;;;5.18;;
71792;SDS011;59639;51.170;6.456;2022-07-30T08:59:43;9.30;;;5.00;;
71792;SDS011;59639;51.170;6.456;2022-07-30T09:02:09;19.30;;;5.00;;
71792;SDS011;59639;51.170;6.456;2022-07-30T09:04:35;15.63;;;4.72;;
71792;SDS011;59639;51.170;6.456;2022-07-30T09:07:00;10.48;;;4.30;;
71792;SDS011;59639;51.170;6.456;2022-07-30T09:09:25;10.57;;;4.10;;
71792;SDS011;59639;51.170;6.456;2022-07-30T09:11:51;12.50;;;6.65;;
71792;SDS011;59639;51.170;6.456;2022-07-30T09:14:16;7.33;;;4.43;;
71792;SDS011;59639;51.170;6.456;2022-07-30T09:16:42;13.85;;;4.63;;
71792;SDS011;59639;51.170;6.456;2022-07-30T09:21:41;6.15;;;4.05;;
71792;SDS011;59639;51.170;6.456;2022-07-30T09:24:08;7.72;;;3.97;;
71792;SDS011;59639;51.170;6.456;2022-07-30T09:29:21;8.00;;;3.25;;
71792;SDS011;59639;51.170;6.456;2022-07-30T09:31:51;8.30;;;3.30;;
71792;SDS011;59639;51.170;6.456;2022-07-30T09:34:28;5.65;;;3.08;;
71792;SDS011;59639;51.170;6.456;2022-07-30T09:36:56;7.68;;;3.90;;
71792;SDS011;59639;51.170;6.456;2022-07-30T09:41:59;8.90;;;2.90;;
71792;SDS011;59639;51.170;6.456;2022-07-30T09:44:25;10.38;;;4.43;;
71792;SDS011;59639;51.170;6.456;2022-07-30T09:46:52;9.25;;;3.50;;
71792;SDS011;59639;51.170;6.456;2022-07-30T09:49:19;6.38;;;3.42;;
71792;SDS011;59639;51.170;6.456;2022-07-30T09:51:46;10.50;;;3.65;;
71792;SDS011;59639;51.170;6.456;2022-07-30T09:54:12;9.68;;;3.85;;
71792;SDS011;59639;51.170;6.456;2022-07-30T09:56:38;9.93;;;3.95;;
71792;SDS011;59639;51.170;6.456;2022-07-30T09:59:04;13.77;;;4.40;;
71792;SDS011;59639;51.170;6.456;2022-07-30T10:01:48;10.40;;;6.00;;
71792;SDS011;59639;51.170;6.456;2022-07-30T10:04:36;10.75;;;6.75;;
71792;SDS011;59639;51.170;6.456;2022-07-30T10:07:01;10.25;;;5.93;;
71792;SDS011;59639;51.170;6.456;2022-07-30T10:09:28;9.88;;;3.60;;
71792;SDS011;59639;51.170;6.456;2022-07-30T10:11:55;7.05;;;3.75;;
71792;SDS011;59639;51.170;6.456;2022-07-30T10:14:22;6.25;;;3.15;;
71792;SDS011;59639;51.170;6.456;2022-07-30T10:16:49;9.52;;;3.35;;
71792;SDS011;59639;51.170;6.456;2022-07-30T10:19:16;6.40;;;3.97;;
71792;SDS011;59639;51.170;6.456;2022-07-30T10:21:43;6.13;;;3.80;;
71792;SDS011;59639;51.170;6.456;2022-07-30T10:24:08;9.88;;;5.00;;
71792;SDS011;59639;51.170;6.456;2022-07-30T10:26:35;5.25;;;2.83;;
71792;SDS011;59639;51.170;6.456;2022-07-30T10:29:01;10.32;;;3.60;;
71792;SDS011;59639;51.170;6.456;2022-07-30T10:31:27;8.05;;;3.63;;
71792;SDS011;59639;51.170;6.456;2022-07-30T10:33:54;7.00;;;3.00;;
71792;SDS011;59639;51.170;6.456;2022-07-30T10:36:19;8.02;;;3.20;;
71792;SDS011;59639;51.170;6.456;2022-07-30T10:38:46;7.57;;;3.80;;
71792;SDS011;59639;51.170;6.456;2022-07-30T10:47:05;7.65;;;3.08;;
71792;SDS011;59639;51.170;6.456;2022-07-30T10:49:33;5.30;;;2.78;;
71792;SDS011;59639;51.170;6.456;2022-07-30T10:51:59;5.03;;;2.60;;
71792;SDS011;59639;51.170;6.456;2022-07-30T10:54:38;8.00;;;2.47;;
71792;SDS011;59639;51.170;6.456;2022-07-30T10:57:26;10.90;;;4.03;;
71792;SDS011;59639;51.170;6.456;2022-07-30T11:02:25;8.82;;;3.50;;
71792;SDS011;59639;51.170;6.456;2022-07-30T11:07:42;5.90;;;3.70;;
71792;SDS011;59639;51.170;6.456;2022-07-30T11:10:13;7.13;;;3.08;;
71792;SDS011;59639;51.170;6.456;2022-07-30T11:13:00;6.43;;;2.88;;
71792;SDS011;59639;51.170;6.456;2022-07-30T11:15:50;6.53;;;3.08;;
71792;SDS011;59639;51.170;6.456;2022-07-30T11:18:24;5.25;;;2.47;;
71792;SDS011;59639;51.170;6.456;2022-07-30T11:23:42;9.43;;;3.08;;
71792;SDS011;59639;51.170;6.456;2022-07-30T11:26:09;7.10;;;3.13;;
71792;SDS011;59639;51.170;6.456;2022-07-30T11:28:43;7.53;;;3.00;;
71792;SDS011;59639;51.170;6.456;2022-07-30T11:42:27;5.30;;;2.30;;
71792;SDS011;59639;51.170;6.456;2022-07-30T11:47:51;6.93;;;2.10;;
71792;SDS011;59639;51.170;6.456;2022-07-30T11:50:22;7.30;;;2.70;;
71792;SDS011;59639;51.170;6.456;2022-07-30T11:55:35;2.70;;;2.03;;
71792;SDS011;59639;51.170;6.456;2022-07-30T11:58:07;8.30;;;2.50;;
71792;SDS011;59639;51.170;6.456;2022-07-30T12:00:38;10.73;;;2.70;;
71792;SDS011;59639;51.170;6.456;2022-07-30T12:03:12;8.32;;;2.80;;
71792;SDS011;59639;51.170;6.456;2022-07-30T12:05:42;3.45;;;2.35;;
71792;SDS011;59639;51.170;6.456;2022-07-30T12:08:08;3.13;;;2.20;;
71792;SDS011;59639;51.170;6.456;2022-07-30T12:10:34;4.22;;;1.85;;
71792;SDS011;59639;51.170;6.456;2022-07-30T12:13:06;7.10;;;1.98;;
71792;SDS011;59639;51.170;6.456;2022-07-30T12:15:38;6.82;;;1.98;;
71792;SDS011;59639;51.170;6.456;2022-07-30T12:18:05;5.80;;;2.28;;
71792;SDS011;59639;51.170;6.456;2022-07-30T12:20:32;3.72;;;1.55;;
71792;SDS011;59639;51.170;6.456;2022-07-30T12:22:58;5.57;;;2.20;;
71792;SDS011;59639;51.170;6.456;2022-07-30T12:25:23;3.05;;;1.98;;
71792;SDS011;59639;51.170;6.456;2022-07-30T12:27:49;7.45;;;2.38;;
71792;SDS011;59639;51.170;6.456;2022-07-30T12:30:15;5.22;;;2.35;;
71792;SDS011;59639;51.170;6.456;2022-07-30T12:32:45;5.82;;;1.98;;
71792;SDS011;59639;51.170;6.456;2022-07-30T12:35:11;4.88;;;1.92;;
71792;SDS011;59639;51.170;6.456;2022-07-30T12:37:37;4.03;;;1.63;;
71792;SDS011;59639;51.170;6.456;2022-07-30T12:40:10;6.57;;;2.17;;
71792;SDS011;59639;51.170;6.456;2022-07-30T12:42:47;4.93;;;2.38;;
71792;SDS011;59639;51.170;6.456;2022-07-30T12:45:25;3.60;;;1.90;;
71792;SDS011;59639;51.170;6.456;2022-07-30T12:47:51;2.78;;;1.60;;
71792;SDS011;59639;51.170;6.456;2022-07-30T12:50:16;6.10;;;2.00;;
71792;SDS011;59639;51.170;6.456;2022-07-30T12:52:46;5.45;;;1.70;;
71792;SDS011;59639;51.170;6.456;2022-07-30T12:55:13;3.83;;;1.85;;
71792;SDS011;59639;51.170;6.456;2022-07-30T13:00:27;5.68;;;1.90;;
71792;SDS011;59639;51.170;6.456;2022-07-30T13:02:54;4.63;;;1.60;;
71792;SDS011;59639;51.170;6.456;2022-07-30T13:05:40;4.30;;;1.55;;
71792;SDS011;59639;51.170;6.456;2022-07-30T13:08:06;4.78;;;2.22;;
71792;SDS011;59639;51.170;6.456;2022-07-30T13:10:31;5.07;;;1.45;;
71792;SDS011;59639;51.170;6.456;2022-07-30T13:12:57;4.28;;;1.48;;
71792;SDS011;59639;51.170;6.456;2022-07-30T13:15:23;4.65;;;2.25;;
71792;SDS011;59639;51.170;6.456;2022-07-30T13:17:48;2.22;;;1.17;;
71792;SDS011;59639;51.170;6.456;2022-07-30T13:20:14;3.28;;;1.40;;
71792;SDS011;59639;51.170;6.456;2022-07-30T13:22:40;9.18;;;1.52;;
71792;SDS011;59639;51.170;6.456;2022-07-30T13:25:07;7.25;;;1.45;;
71792;SDS011;59639;51.170;6.456;2022-07-30T13:27:33;9.07;;;1.90;;
71792;SDS011;59639;51.170;6.456;2022-07-30T13:29:59;4.45;;;1.83;;
71792;SDS011;59639;51.170;6.456;2022-07-30T13:32:25;6.50;;;1.80;;
71792;SDS011;59639;51.170;6.456;2022-07-30T13:34:50;6.78;;;1.80;;
71792;SDS011;59639;51.170;6.456;2022-07-30T13:37:15;3.17;;;1.50;;
71792;SDS011;59639;51.170;6.456;2022-07-30T13:39:41;6.30;;;1.60;;
71792;SDS011;59639;51.170;6.456;2022-07-30T13:42:06;3.97;;;1.65;;
71792;SDS011;59639;51.170;6.456;2022-07-30T13:44:32;6.75;;;1.58;;
71792;SDS011;59639;51.170;6.456;2022-07-30T13:46:57;3.00;;;1.70;;
71792;SDS011;59639;51.170;6.456;2022-07-30T13:49:23;3.45;;;1.80;;
71792;SDS011;59639;51.170;6.456;2022-07-30T13:51:48;2.60;;;1.52;;
71792;SDS011;59639;51.170;6.456;2022-07-30T13:54:13;4.78;;;1.95;;
71792;SDS011;59639;51.170;6.456;2022-07-30T13:56:39;7.47;;;1.90;;
71792;SDS011;59639;51.170;6.456;2022-07-30T13:59:04;4.70;;;1.92;;
71792;SDS011;59639;51.170;6.456;2022-07-30T14:01:30;2.80;;;2.10;;
71792;SDS011;59639;51.170;6.456;2022-07-30T14:03:55;4.93;;;1.50;;
71792;SDS011;59639;51.170;6.456;2022-07-30T14:06:21;2.95;;;1.67;;
71792;SDS011;59639;51.170;6.456;2022-07-30T14:08:46;8.18;;;2.47;;
71792;SDS011;59639;51.170;6.456;2022-07-30T14:11:12;4.20;;;1.77;;
71792;SDS011;59639;51.170;6.456;2022-07-30T14:13:38;3.33;;;1.92;;
71792;SDS011;59639;51.170;6.456;2022-07-30T14:16:03;3.50;;;2.13;;
71792;SDS011;59639;51.170;6.456;2022-07-30T14:18:31;5.32;;;2.08;;
71792;SDS011;59639;51.170;6.456;2022-07-30T14:20:56;4.22;;;2.28;;
71792;SDS011;59639;51.170;6.456;2022-07-30T14:23:22;4.97;;;1.90;;
71792;SDS011;59639;51.170;6.456;2022-07-30T14:25:47;4.15;;;2.13;;
71792;SDS011;59639;51.170;6.456;2022-07-30T14:28:13;6.97;;;1.80;;
71792;SDS011;59639;51.170;6.456;2022-07-30T14:30:39;7.68;;;2.08;;
71792;SDS011;59639;51.170;6.456;2022-07-30T14:33:04;9.50;;;1.90;;
71792;SDS011;59639;51.170;6.456;2022-07-30T14:35:30;5.57;;;2.53;;
71792;SDS011;59639;51.170;6.456;2022-07-30T14:37:55;3.85;;;2.17;;
71792;SDS011;59639;51.170;6.456;2022-07-30T14:40:20;2.97;;;1.77;;
71792;SDS011;59639;51.170;6.456;2022-07-30T14:42:46;6.05;;;2.08;;
71792;SDS011;59639;51.170;6.456;2022-07-30T14:45:12;8.65;;;1.85;;
71792;SDS011;59639;51.170;6.456;2022-07-30T14:47:38;5.53;;;1.85;;
71792;SDS011;59639;51.170;6.456;2022-07-30T14:50:04;3.70;;;2.03;;
71792;SDS011;59639;51.170;6.456;2022-07-30T14:52:31;2.95;;;1.90;;
71792;SDS011;59639;51.170;6.456;2022-07-30T14:54:59;12.05;;;2.15;;
71792;SDS011;59639;51.170;6.456;2022-07-30T14:57:25;5.03;;;1.58;;
71792;SDS011;59639;51.170;6.456;2022-07-30T14:59:50;6.88;;;1.80;;
71792;SDS011;59639;51.170;6.456;2022-07-30T15:02:16;8.90;;;1.83;;
71792;SDS011;59639;51.170;6.456;2022-07-30T15:04:41;3.00;;;2.30;;
71792;SDS011;59639;51.170;6.456;2022-07-30T15:07:06;6.32;;;3.20;;
71792;SDS011;59639;51.170;6.456;2022-07-30T15:09:32;4.50;;;2.00;;
71792;SDS011;59639;51.170;6.456;2022-07-30T15:11:58;2.80;;;1.70;;
71792;SDS011;59639;51.170;6.456;2022-07-30T15:14:24;4.22;;;1.65;;
71792;SDS011;59639;51.170;6.456;2022-07-30T15:16:51;3.15;;;1.70;;
71792;SDS011;59639;51.170;6.456;2022-07-30T15:19:16;4.10;;;1.45;;